Time;durP1;ratioP1;P1;durP2;ratioP2;P2;SDS_P1;SDS_P2;PMS_P1;PMS_P2;Temp;Humidity;BMP_temperature;BMP_pressure;BME280_temperature;BME280_humidity;BME280_pressure;Samples;Min_cycle;Max_cycle;Signal;HPM_P1;HPM_P2
2023/01/06 00:02:26;;;;;;;43.33;7.15;;;;;;;;;;5013625;28;20085;-72
2023/01/06 00:04:54;;;;;;;43.53;5.85;;;;;;;;;;5015911;28;20053;-72
2023/01/06 00:07:22;;;;;;;52.83;7.47;;;;;;;;;;5016541;28;20115;-72
2023/01/06 00:09:49;;;;;;;47.25;6.40;;;;;;;;;;5020901;28;20065;-72
2023/01/06 00:12:17;;;;;;;44.05;5.78;;;;;;;;;;5014269;28;20081;-72
2023/01/06 00:14:46;;;;;;;43.25;5.55;;;;;;;;;;4999098;28;20061;-72
2023/01/06 00:17:13;;;;;;;45.10;6.45;;;;;;;;;;5020341;28;20476;-72
2023/01/06 00:19:40;;;;;;;37.35;5.18;;;;;;;;;;5019575;28;20487;-72
2023/01/06 00:22:07;;;;;;;41.03;5.70;;;;;;;;;;5016821;28;20145;-72
2023/01/06 00:24:36;;;;;;;36.65;5.55;;;;;;;;;;5023365;28;20060;-72
2023/01/06 00:27:03;;;;;;;38.03;5.20;;;;;;;;;;5018027;28;20052;-72
2023/01/06 00:29:31;;;;;;;38.03;4.68;;;;;;;;;;5005894;28;20045;-71
2023/01/06 00:31:59;;;;;;;40.90;5.38;;;;;;;;;;5023839;28;20053;-72
2023/01/06 00:34:26;;;;;;;50.25;6.05;;;;;;;;;;5000581;28;20057;-72
2023/01/06 00:36:54;;;;;;;38.13;5.45;;;;;;;;;;5020348;28;20495;-71
2023/01/06 00:39:21;;;;;;;35.35;5.40;;;;;;;;;;5022271;28;20052;-72
2023/01/06 00:42:05;;;;;;;39.60;5.50;;;;;;;;;;5019213;28;21328;-72
2023/01/06 00:44:33;;;;;;;21.92;4.25;;;;;;;;;;5019927;28;20041;-71
2023/01/06 00:47:01;;;;;;;29.90;3.85;;;;;;;;;;5021744;28;20504;-72
2023/01/06 00:49:28;;;;;;;25.80;4.00;;;;;;;;;;5021115;28;20274;-72
2023/01/06 00:51:56;;;;;;;25.92;4.60;;;;;;;;;;5019845;28;20046;-71
2023/01/06 00:54:23;;;;;;;33.03;3.67;;;;;;;;;;5020443;28;20049;-72
2023/01/06 00:56:52;;;;;;;30.92;3.85;;;;;;;;;;5003145;28;20050;-71
2023/01/06 00:59:21;;;;;;;31.83;4.20;;;;;;;;;;5022791;28;20160;-72
2023/01/06 01:01:50;;;;;;;22.98;3.28;;;;;;;;;;5023956;28;20048;-72
2023/01/06 01:04:17;;;;;;;26.88;3.47;;;;;;;;;;5006364;28;20053;-73
2023/01/06 01:06:46;;;;;;;26.85;4.20;;;;;;;;;;5023194;28;20041;-71
2023/01/06 01:09:14;;;;;;;28.95;2.97;;;;;;;;;;5024080;28;20076;-71
2023/01/06 01:14:27;;;;;;;34.63;3.72;;;;;;;;;;5022498;28;20037;-72
2023/01/06 01:16:55;;;;;;;27.02;3.63;;;;;;;;;;5005565;28;20049;-71
2023/01/06 01:19:22;;;;;;;32.83;4.55;;;;;;;;;;5022521;28;20053;-72
2023/01/06 01:21:49;;;;;;;26.00;4.18;;;;;;;;;;5003465;28;20393;-72
2023/01/06 01:24:17;;;;;;;29.33;3.92;;;;;;;;;;5024686;28;20045;-72
2023/01/06 01:26:44;;;;;;;31.70;4.75;;;;;;;;;;5022200;28;20053;-72
2023/01/06 01:29:12;;;;;;;31.58;4.43;;;;;;;;;;5017885;28;20054;-72
2023/01/06 01:31:40;;;;;;;24.35;3.78;;;;;;;;;;5021917;28;20045;-72
2023/01/06 01:34:08;;;;;;;24.55;3.40;;;;;;;;;;5024382;28;20049;-72
2023/01/06 01:36:35;;;;;;;23.85;3.38;;;;;;;;;;5025919;28;20060;-72
2023/01/06 01:39:02;;;;;;;23.40;3.03;;;;;;;;;;5025002;28;20133;-72
2023/01/06 01:41:30;;;;;;;28.10;4.45;;;;;;;;;;5017960;28;20060;-72
2023/01/06 01:43:58;;;;;;;25.85;3.38;;;;;;;;;;5019380;28;20053;-71
2023/01/06 01:46:27;;;;;;;27.88;3.53;;;;;;;;;;5003068;28;20408;-71
2023/01/06 01:48:57;;;;;;;29.45;3.42;;;;;;;;;;5025787;28;20192;-71
2023/01/06 01:51:27;;;;;;;21.10;3.13;;;;;;;;;;4999690;28;20057;-71
2023/01/06 01:53:56;;;;;;;22.45;2.88;;;;;;;;;;5008233;28;20060;-71
2023/01/06 01:56:25;;;;;;;30.80;5.10;;;;;;;;;;5018569;28;20077;-71
2023/01/06 01:58:54;;;;;;;24.73;3.30;;;;;;;;;;5020222;28;20049;-71
2023/01/06 02:01:22;;;;;;;21.67;3.25;;;;;;;;;;5015818;28;20065;-72
2023/01/06 02:03:49;;;;;;;17.27;2.67;;;;;;;;;;5623972;22;20060;-71
2023/01/06 02:06:19;;;;;;;19.23;2.47;;;;;;;;;;4999305;28;20064;-72
2023/01/06 02:08:50;;;;;;;22.10;3.55;;;;;;;;;;5000865;28;20906;-71
2023/01/06 02:11:17;;;;;;;20.23;2.60;;;;;;;;;;5002319;28;20050;-71
2023/01/06 02:13:46;;;;;;;20.55;2.42;;;;;;;;;;5001998;28;20511;-72
2023/01/06 02:16:16;;;;;;;20.90;2.90;;;;;;;;;;4998362;28;20047;-72
2023/01/06 02:18:54;;;;;;;20.38;3.40;;;;;;;;;;4999063;28;20380;-71
2023/01/06 02:21:29;;;;;;;24.95;3.35;;;;;;;;;;4996501;28;20092;-71
2023/01/06 02:24:02;;;;;;;21.40;2.30;;;;;;;;;;5000154;28;20050;-71
2023/01/06 02:26:53;;;;;;;17.53;2.13;;;;;;;;;;5006791;28;20050;-71
2023/01/06 02:29:38;;;;;;;14.80;1.95;;;;;;;;;;4998260;28;20061;-72
2023/01/06 02:32:13;;;;;;;14.77;2.35;;;;;;;;;;5001348;28;20077;-71
2023/01/06 02:34:48;;;;;;;17.40;2.85;;;;;;;;;;4997094;28;20177;-71
2023/01/06 02:37:30;;;;;;;20.27;2.40;;;;;;;;;;5001854;28;20045;-71
2023/01/06 02:40:05;;;;;;;14.32;2.17;;;;;;;;;;4996829;28;20046;-72
2023/01/06 02:42:37;;;;;;;18.30;1.75;;;;;;;;;;5007179;28;20057;-71
2023/01/06 02:45:08;;;;;;;10.70;1.88;;;;;;;;;;5004662;28;20594;-71
2023/01/06 02:47:43;;;;;;;11.68;1.60;;;;;;;;;;5003987;28;20057;-71
2023/01/06 02:50:12;;;;;;;17.38;2.22;;;;;;;;;;4998413;28;20046;-72
2023/01/06 02:52:43;;;;;;;14.38;1.92;;;;;;;;;;4985788;28;20054;-71
2023/01/06 02:55:13;;;;;;;13.02;1.52;;;;;;;;;;5003647;28;20046;-72
2023/01/06 02:57:43;;;;;;;13.98;2.13;;;;;;;;;;4986316;28;20061;-71
2023/01/06 03:00:12;;;;;;;11.98;2.15;;;;;;;;;;4999626;28;20050;-71
2023/01/06 03:02:42;;;;;;;11.32;1.70;;;;;;;;;;4999853;28;20045;-71
2023/01/06 03:05:10;;;;;;;12.90;1.77;;;;;;;;;;4995667;28;20088;-71
2023/01/06 03:07:38;;;;;;;6.78;1.30;;;;;;;;;;4996524;28;20055;-71
2023/01/06 03:10:07;;;;;;;12.07;2.03;;;;;;;;;;4974710;28;20050;-71
2023/01/06 03:12:39;;;;;;;11.57;1.40;;;;;;;;;;4988269;28;20053;-71
2023/01/06 03:15:07;;;;;;;10.50;1.48;;;;;;;;;;4990118;28;20053;-71
2023/01/06 03:17:34;;;;;;;9.38;1.55;;;;;;;;;;4994611;28;20054;-71
2023/01/06 03:20:03;;;;;;;11.95;1.75;;;;;;;;;;4993182;28;20073;-71
2023/01/06 03:22:30;;;;;;;7.75;1.73;;;;;;;;;;4992424;28;20377;-71
2023/01/06 03:24:58;;;;;;;9.98;1.80;;;;;;;;;;4995105;28;20058;-72
2023/01/06 03:27:26;;;;;;;14.70;2.40;;;;;;;;;;4994114;28;20054;-71
2023/01/06 03:29:53;;;;;;;13.02;2.25;;;;;;;;;;4990149;28;20046;-71
2023/01/06 03:32:22;;;;;;;10.27;2.20;;;;;;;;;;4993902;28;20408;-71
2023/01/06 03:34:55;;;;;;;10.85;2.55;;;;;;;;;;5000070;28;20522;-71
2023/01/06 03:37:27;;;;;;;12.88;2.60;;;;;;;;;;4991760;28;20062;-71
2023/01/06 03:40:01;;;;;;;10.32;3.17;;;;;;;;;;4989062;28;20082;-71
2023/01/06 03:45:36;;;;;;;12.10;4.40;;;;;;;;;;4997577;28;20073;-71
2023/01/06 03:48:06;;;;;;;11.93;4.43;;;;;;;;;;4977986;28;20082;-72
2023/01/06 03:50:36;;;;;;;12.77;5.00;;;;;;;;;;4990100;28;20054;-71
2023/01/06 03:53:13;;;;;;;15.88;6.18;;;;;;;;;;4969654;28;20042;-71
2023/01/06 03:55:43;;;;;;;15.20;6.13;;;;;;;;;;4996107;28;20411;-71
2023/01/06 03:58:12;;;;;;;17.75;6.68;;;;;;;;;;4996947;28;20050;-71
2023/01/06 04:00:41;;;;;;;13.93;6.65;;;;;;;;;;5004150;28;20057;-71
2023/01/06 04:03:09;;;;;;;11.32;7.18;;;;;;;;;;4989546;28;20061;-71
2023/01/06 04:05:36;;;;;;;13.75;6.85;;;;;;;;;;4991568;28;20082;-71
2023/01/06 04:08:05;;;;;;;12.35;6.82;;;;;;;;;;4984825;28;20046;-71
2023/01/06 04:10:33;;;;;;;10.43;6.28;;;;;;;;;;4979333;28;20407;-71
2023/01/06 04:12:59;;;;;;;12.95;6.22;;;;;;;;;;4989828;28;20046;-71
2023/01/06 04:15:28;;;;;;;13.50;6.43;;;;;;;;;;4984229;28;20105;-71
2023/01/06 04:17:55;;;;;;;10.18;5.93;;;;;;;;;;5003444;28;20135;-72
2023/01/06 04:20:24;;;;;;;11.90;6.35;;;;;;;;;;4993992;28;20081;-71
2023/01/06 04:22:53;;;;;;;9.02;6.05;;;;;;;;;;4999713;28;20488;-71
2023/01/06 04:25:22;;;;;;;16.38;5.88;;;;;;;;;;4994646;28;20058;-72
2023/01/06 04:27:49;;;;;;;12.82;5.93;;;;;;;;;;5003787;28;20057;-71
2023/01/06 04:30:16;;;;;;;12.85;5.43;;;;;;;;;;4998174;28;20049;-71
2023/01/06 04:32:44;;;;;;;11.45;5.68;;;;;;;;;;5000933;28;20054;-71
2023/01/06 04:35:11;;;;;;;9.35;5.00;;;;;;;;;;4995451;28;20381;-71
2023/01/06 04:37:38;;;;;;;11.38;5.22;;;;;;;;;;4985770;28;20062;-71
2023/01/06 04:40:07;;;;;;;9.10;4.43;;;;;;;;;;4999702;28;20066;-71
2023/01/06 04:45:17;;;;;;;7.95;3.70;;;;;;;;;;4990358;28;20058;-71
2023/01/06 04:47:44;;;;;;;9.02;4.28;;;;;;;;;;5009309;28;20050;-71
2023/01/06 04:50:12;;;;;;;9.77;3.25;;;;;;;;;;4997203;28;20051;-71
2023/01/06 04:52:39;;;;;;;9.20;3.35;;;;;;;;;;5001298;28;20492;-71
2023/01/06 04:55:07;;;;;;;5.63;3.05;;;;;;;;;;4999369;28;20053;-71
2023/01/06 04:57:36;;;;;;;11.80;3.03;;;;;;;;;;5001671;28;20085;-71
2023/01/06 05:00:03;;;;;;;5.53;3.03;;;;;;;;;;4994688;28;20045;-71
2023/01/06 05:02:30;;;;;;;7.25;2.63;;;;;;;;;;4991999;28;20667;-71
2023/01/06 05:04:58;;;;;;;5.30;2.60;;;;;;;;;;4998313;28;20054;-71
2023/01/06 05:07:25;;;;;;;8.18;2.47;;;;;;;;;;4995717;28;20050;-71
2023/01/06 05:09:52;;;;;;;8.23;2.90;;;;;;;;;;4992803;28;20046;-71
2023/01/06 05:12:19;;;;;;;8.35;2.97;;;;;;;;;;4994771;28;20513;-71
2023/01/06 05:14:48;;;;;;;13.30;3.28;;;;;;;;;;5002617;28;20057;-71
2023/01/06 05:17:15;;;;;;;8.38;3.80;;;;;;;;;;4992834;28;20042;-72
2023/01/06 05:19:43;;;;;;;14.40;5.28;;;;;;;;;;5002759;28;20046;-72
2023/01/06 05:22:10;;;;;;;12.85;4.85;;;;;;;;;;4998187;28;20046;-71
2023/01/06 05:24:37;;;;;;;15.07;5.28;;;;;;;;;;4994614;28;20121;-72
2023/01/06 05:27:05;;;;;;;14.07;6.22;;;;;;;;;;4993883;28;20046;-71
2023/01/06 05:29:32;;;;;;;15.23;6.60;;;;;;;;;;5002379;28;20049;-71
2023/01/06 05:32:01;;;;;;;17.42;6.90;;;;;;;;;;4999912;28;20888;-71
2023/01/06 05:34:28;;;;;;;18.80;7.07;;;;;;;;;;4979808;28;20396;-71
2023/01/06 05:36:56;;;;;;;16.08;7.00;;;;;;;;;;4996845;28;20047;-71
2023/01/06 05:39:24;;;;;;;19.23;7.70;;;;;;;;;;4996307;28;20173;-72
2023/01/06 05:41:51;;;;;;;14.45;8.02;;;;;;;;;;4972530;28;20050;-72
2023/01/06 05:44:18;;;;;;;15.50;7.60;;;;;;;;;;4995898;28;20049;-72
2023/01/06 05:46:45;;;;;;;19.80;7.90;;;;;;;;;;4989366;28;20050;-71
2023/01/06 05:49:14;;;;;;;19.25;8.77;;;;;;;;;;4972518;28;20093;-72
2023/01/06 05:51:41;;;;;;;14.45;7.93;;;;;;;;;;4989663;28;20041;-71
2023/01/06 05:54:09;;;;;;;17.67;8.98;;;;;;;;;;4997337;28;20122;-71
2023/01/06 05:56:36;;;;;;;17.75;8.63;;;;;;;;;;4985135;28;20057;-72
2023/01/06 05:59:04;;;;;;;12.95;8.93;;;;;;;;;;4971719;28;20058;-71
2023/01/06 06:01:32;;;;;;;19.95;9.07;;;;;;;;;;4990305;28;20129;-72
2023/01/06 06:03:59;;;;;;;16.92;8.38;;;;;;;;;;4991353;28;20050;-72
2023/01/06 06:06:29;;;;;;;15.77;9.00;;;;;;;;;;4991972;28;20129;-72
2023/01/06 06:08:57;;;;;;;15.27;9.35;;;;;;;;;;4995605;28;20073;-72
2023/01/06 06:11:24;;;;;;;12.35;8.00;;;;;;;;;;4994369;28;20073;-72
2023/01/06 06:13:53;;;;;;;16.00;9.18;;;;;;;;;;4994038;28;20050;-72
2023/01/06 06:16:21;;;;;;;15.43;9.75;;;;;;;;;;4988781;28;20060;-72
2023/01/06 06:18:49;;;;;;;13.88;8.68;;;;;;;;;;4992116;28;20076;-72
2023/01/06 06:21:17;;;;;;;16.20;8.57;;;;;;;;;;4994840;28;20046;-72
2023/01/06 06:23:46;;;;;;;16.05;8.43;;;;;;;;;;4979193;28;20054;-71
2023/01/06 06:26:13;;;;;;;14.90;9.00;;;;;;;;;;4969543;28;20053;-72
2023/01/06 06:28:41;;;;;;;18.65;7.53;;;;;;;;;;4990920;28;20040;-72
2023/01/06 06:31:09;;;;;;;11.82;6.97;;;;;;;;;;5001209;28;20038;-72
2023/01/06 06:33:36;;;;;;;13.38;5.65;;;;;;;;;;4987347;28;20057;-72
2023/01/06 06:36:03;;;;;;;11.00;5.00;;;;;;;;;;5000454;28;20050;-72
2023/01/06 06:38:31;;;;;;;11.85;5.57;;;;;;;;;;4998723;28;20057;-72
2023/01/06 06:40:59;;;;;;;12.02;4.07;;;;;;;;;;4999113;28;20073;-71
2023/01/06 06:43:28;;;;;;;8.50;3.97;;;;;;;;;;4990772;28;20042;-71
2023/01/06 06:45:55;;;;;;;13.30;3.42;;;;;;;;;;4989612;28;20046;-72
2023/01/06 06:48:22;;;;;;;11.35;2.88;;;;;;;;;;4992268;28;20058;-72
2023/01/06 06:50:56;;;;;;;12.57;2.80;;;;;;;;;;4995983;28;20052;-72
2023/01/06 06:53:23;;;;;;;19.20;3.60;;;;;;;;;;4991797;28;20042;-71
2023/01/06 06:55:50;;;;;;;19.63;2.40;;;;;;;;;;4987832;28;20404;-72
2023/01/06 06:58:19;;;;;;;23.25;2.67;;;;;;;;;;4972462;28;20058;-72
2023/01/06 07:00:46;;;;;;;11.73;1.70;;;;;;;;;;4969675;28;20061;-72
2023/01/06 07:03:14;;;;;;;15.57;1.55;;;;;;;;;;4984419;28;20428;-72
2023/01/06 07:05:42;;;;;;;14.88;1.15;;;;;;;;;;4989493;28;20049;-72
2023/01/06 07:08:09;;;;;;;9.90;1.08;;;;;;;;;;4986433;28;20058;-72
2023/01/06 07:10:37;;;;;;;19.05;2.00;;;;;;;;;;4994707;28;20047;-72
2023/01/06 07:13:04;;;;;;;20.63;2.70;;;;;;;;;;4990383;28;20489;-72
2023/01/06 07:15:33;;;;;;;22.20;2.67;;;;;;;;;;4994768;28;20133;-72
2023/01/06 07:18:01;;;;;;;17.48;1.70;;;;;;;;;;4968373;28;20071;-72
2023/01/06 07:20:28;;;;;;;34.17;2.75;;;;;;;;;;4973548;28;20405;-72
2023/01/06 07:22:55;;;;;;;22.08;1.73;;;;;;;;;;4987207;28;20057;-72
2023/01/06 07:25:23;;;;;;;26.58;2.08;;;;;;;;;;4977049;28;20396;-72
2023/01/06 07:27:54;;;;;;;24.13;3.22;;;;;;;;;;4980842;28;20078;-72
2023/01/06 07:30:21;;;;;;;19.95;1.92;;;;;;;;;;4999341;28;20109;-72
2023/01/06 07:32:50;;;;;;;24.15;2.55;;;;;;;;;;4988111;28;20057;-72
2023/01/06 07:35:18;;;;;;;19.75;1.80;;;;;;;;;;4998770;28;20394;-72
2023/01/06 07:37:45;;;;;;;20.63;2.30;;;;;;;;;;4982590;28;20054;-72
2023/01/06 07:40:13;;;;;;;19.13;1.55;;;;;;;;;;4992274;28;20054;-72
2023/01/06 07:42:40;;;;;;;24.60;1.98;;;;;;;;;;4991310;28;20046;-72
2023/01/06 07:45:08;;;;;;;27.55;2.03;;;;;;;;;;4985634;28;20400;-71
2023/01/06 07:47:35;;;;;;;30.80;2.28;;;;;;;;;;4996566;28;20046;-71
2023/01/06 07:50:05;;;;;;;23.02;2.50;;;;;;;;;;4994504;28;20513;-72
2023/01/06 07:52:32;;;;;;;34.33;2.65;;;;;;;;;;4994284;28;20045;-72
2023/01/06 07:54:59;;;;;;;24.63;1.90;;;;;;;;;;4980915;28;20061;-72
2023/01/06 07:57:26;;;;;;;22.42;1.88;;;;;;;;;;4993088;28;20050;-72
2023/01/06 07:59:54;;;;;;;23.70;2.08;;;;;;;;;;4975061;28;20051;-72
2023/01/06 08:02:21;;;;;;;20.52;1.60;;;;;;;;;;4995271;28;20121;-72
2023/01/06 08:04:49;;;;;;;38.50;2.90;;;;;;;;;;4975151;28;20055;-72
2023/01/06 08:07:18;;;;;;;22.40;1.75;;;;;;;;;;4968343;28;20050;-72
2023/01/06 08:09:45;;;;;;;30.60;2.15;;;;;;;;;;4969929;28;20051;-72
2023/01/06 08:12:12;;;;;;;35.78;2.75;;;;;;;;;;4977807;28;20043;-72
2023/01/06 08:14:39;;;;;;;34.03;2.95;;;;;;;;;;4975268;28;20553;-72
2023/01/06 08:17:07;;;;;;;30.92;3.13;;;;;;;;;;4975944;28;20485;-72
2023/01/06 08:19:34;;;;;;;24.83;3.13;;;;;;;;;;4977977;28;20051;-72
2023/01/06 08:22:01;;;;;;;30.33;2.42;;;;;;;;;;4977283;28;20486;-72
2023/01/06 08:24:30;;;;;;;25.67;2.00;;;;;;;;;;4973203;28;20051;-72
2023/01/06 08:26:58;;;;;;;34.88;2.55;;;;;;;;;;4975644;28;20078;-72
2023/01/06 08:29:25;;;;;;;30.05;2.78;;;;;;;;;;4981623;28;20623;-72
2023/01/06 08:31:52;;;;;;;33.38;2.72;;;;;;;;;;4975574;28;20054;-72
2023/01/06 08:34:20;;;;;;;36.88;2.97;;;;;;;;;;4972572;28;20061;-72
2023/01/06 08:36:47;;;;;;;27.80;2.42;;;;;;;;;;4971325;28;20455;-72
2023/01/06 08:39:14;;;;;;;27.17;2.90;;;;;;;;;;4975992;28;20058;-72
2023/01/06 08:41:43;;;;;;;25.80;3.08;;;;;;;;;;4977434;28;20055;-72
2023/01/06 08:44:11;;;;;;;31.92;2.97;;;;;;;;;;4975014;28;20063;-72
2023/01/06 08:46:38;;;;;;;21.48;2.33;;;;;;;;;;4977047;28;20054;-72
2023/01/06 08:49:05;;;;;;;25.05;2.60;;;;;;;;;;4970775;28;20072;-72
2023/01/06 08:51:33;;;;;;;34.08;2.45;;;;;;;;;;4967658;28;20051;-72
2023/01/06 08:54:01;;;;;;;29.58;2.25;;;;;;;;;;4976340;28;20078;-72
2023/01/06 08:56:28;;;;;;;36.42;2.40;;;;;;;;;;4966887;28;20125;-72
2023/01/06 08:58:58;;;;;;;23.35;2.20;;;;;;;;;;4965549;28;20058;-72
2023/01/06 09:01:26;;;;;;;26.33;2.40;;;;;;;;;;4972599;28;20055;-72
2023/01/06 09:03:53;;;;;;;21.13;2.03;;;;;;;;;;5008881;23;20062;-72
2023/01/06 09:06:21;;;;;;;30.88;3.63;;;;;;;;;;4967187;28;20050;-72
2023/01/06 09:08:49;;;;;;;22.30;1.75;;;;;;;;;;4966378;28;20055;-72
2023/01/06 09:11:16;;;;;;;20.38;1.90;;;;;;;;;;4964924;28;20417;-72
2023/01/06 09:13:44;;;;;;;20.80;2.03;;;;;;;;;;4961538;28;20054;-72
2023/01/06 09:16:13;;;;;;;20.65;1.73;;;;;;;;;;4961236;28;20057;-72
2023/01/06 09:18:46;;;;;;;20.45;1.65;;;;;;;;;;4965883;28;20050;-72
2023/01/06 09:21:13;;;;;;;11.80;2.00;;;;;;;;;;4965528;28;20149;-72
2023/01/06 09:23:40;;;;;;;23.27;2.10;;;;;;;;;;4955716;28;20051;-72
2023/01/06 09:26:08;;;;;;;17.52;1.75;;;;;;;;;;4965920;28;20072;-72
2023/01/06 09:28:35;;;;;;;16.20;1.65;;;;;;;;;;4960650;28;20110;-72
2023/01/06 09:31:02;;;;;;;14.75;2.28;;;;;;;;;;4962091;28;20062;-72
2023/01/06 09:33:31;;;;;;;15.52;1.75;;;;;;;;;;4964563;28;20042;-72
2023/01/06 09:35:58;;;;;;;12.73;1.73;;;;;;;;;;4970230;28;20053;-72
2023/01/06 09:38:26;;;;;;;14.38;1.40;;;;;;;;;;4969100;28;20051;-72
2023/01/06 09:41:09;;;;;;;14.07;1.50;;;;;;;;;;4962568;28;20053;-72
2023/01/06 09:43:42;;;;;;;26.77;1.70;;;;;;;;;;4967416;28;20050;-72
2023/01/06 09:46:11;;;;;;;18.63;2.73;;;;;;;;;;4968083;28;20054;-72
2023/01/06 09:48:41;;;;;;;14.77;1.55;;;;;;;;;;4955396;28;20308;-72
2023/01/06 09:51:08;;;;;;;10.55;1.40;;;;;;;;;;4962003;28;20133;-72
2023/01/06 09:53:38;;;;;;;13.15;1.48;;;;;;;;;;4958510;28;20489;-72
2023/01/06 09:56:08;;;;;;;19.48;1.50;;;;;;;;;;4964360;28;21618;-72
2023/01/06 09:58:38;;;;;;;19.48;1.98;;;;;;;;;;4974571;28;20504;-72
2023/01/06 10:01:07;;;;;;;27.08;2.95;;;;;;;;;;4974762;28;20043;-72
2023/01/06 10:03:34;;;;;;;18.30;2.10;;;;;;;;;;4963136;28;20125;-72
2023/01/06 10:06:10;;;;;;;16.80;1.98;;;;;;;;;;4968824;28;20050;-72
2023/01/06 10:08:41;;;;;;;13.13;1.45;;;;;;;;;;4962212;28;20062;-72
2023/01/06 10:11:13;;;;;;;14.93;1.50;;;;;;;;;;4982750;28;20058;-72
2023/01/06 10:13:55;;;;;;;17.58;1.85;;;;;;;;;;4966419;28;20053;-72
2023/01/06 10:16:29;;;;;;;13.90;2.20;;;;;;;;;;4978455;28;20061;-72
2023/01/06 10:18:56;;;;;;;;;;;;;;;;;;4968445;28;20122;-72
2023/01/06 10:21:31;;;;;;;20.70;3.90;;;;;;;;;;4961412;28;19938;-72
2023/01/06 10:24:03;;;;;;;16.60;1.73;;;;;;;;;;4966653;28;20129;-72
2023/01/06 10:26:31;;;;;;;20.10;2.65;;;;;;;;;;4967571;28;20058;-72
2023/01/06 10:29:02;;;;;;;19.17;2.10;;;;;;;;;;4960602;28;20050;-72
2023/01/06 10:31:31;;;;;;;18.40;2.15;;;;;;;;;;4969171;28;20073;-72
2023/01/06 10:33:59;;;;;;;15.10;2.17;;;;;;;;;;4969657;28;20057;-72
2023/01/06 10:36:33;;;;;;;20.38;2.65;;;;;;;;;;4965790;28;20086;-72
2023/01/06 10:39:01;;;;;;;13.00;1.98;;;;;;;;;;4961580;28;20594;-72
2023/01/06 10:41:37;;;;;;;20.38;1.63;;;;;;;;;;4963951;28;20073;-72
2023/01/06 10:44:04;;;;;;;23.88;2.30;;;;;;;;;;4958992;28;20505;-72
2023/01/06 10:46:33;;;;;;;17.45;2.50;;;;;;;;;;4965476;28;20332;-72
2023/01/06 10:49:01;;;;;;;23.73;2.35;;;;;;;;;;4963319;28;20537;-72
2023/01/06 10:51:38;;;;;;;18.77;2.33;;;;;;;;;;4965432;28;20059;-72
2023/01/06 10:54:08;;;;;;;16.58;1.60;;;;;;;;;;4959045;28;20085;-72
2023/01/06 10:56:36;;;;;;;19.92;2.28;;;;;;;;;;4960779;28;20055;-70
2023/01/06 10:59:07;;;;;;;17.95;2.30;;;;;;;;;;4967542;28;20070;-70
2023/01/06 11:01:36;;;;;;;15.55;2.00;;;;;;;;;;4981934;28;20051;-73
2023/01/06 11:04:08;;;;;;;17.75;2.20;;;;;;;;;;4966212;28;20490;-73
2023/01/06 11:06:39;;;;;;;14.02;2.13;;;;;;;;;;4969447;28;20524;-72
2023/01/06 11:09:09;;;;;;;20.20;3.25;;;;;;;;;;4957346;28;20505;-72
2023/01/06 11:11:46;;;;;;;17.95;2.40;;;;;;;;;;4960807;28;20062;-72
2023/01/06 11:14:15;;;;;;;20.42;2.38;;;;;;;;;;4959047;28;20046;-73
2023/01/06 11:16:43;;;;;;;20.58;2.50;;;;;;;;;;4960579;28;20047;-72
2023/01/06 11:19:23;;;;;;;17.42;2.72;;;;;;;;;;4964994;28;20046;-72
2023/01/06 11:21:52;;;;;;;22.05;3.05;;;;;;;;;;4955875;28;20051;-72
2023/01/06 11:24:20;;;;;;;26.05;2.40;;;;;;;;;;4956349;28;20083;-72
2023/01/06 11:26:52;;;;;;;18.52;2.40;;;;;;;;;;4964743;28;20065;-72
2023/01/06 11:29:20;;;;;;;22.70;2.45;;;;;;;;;;4961139;28;20524;-72
2023/01/06 11:31:48;;;;;;;22.10;2.63;;;;;;;;;;4958039;28;20054;-72
2023/01/06 11:34:22;;;;;;;23.38;2.38;;;;;;;;;;4963925;28;20056;-72
2023/01/06 11:36:50;;;;;;;21.95;2.72;;;;;;;;;;4960554;28;20082;-72
2023/01/06 11:39:22;;;;;;;16.85;1.73;;;;;;;;;;4961831;28;20051;-71
2023/01/06 11:41:51;;;;;;;19.80;2.25;;;;;;;;;;4966548;28;20046;-72
2023/01/06 11:44:21;;;;;;;15.63;2.42;;;;;;;;;;4961176;28;20043;-72
2023/01/06 11:46:51;;;;;;;15.77;2.10;;;;;;;;;;4963111;28;20051;-72
2023/01/06 11:49:22;;;;;;;18.90;1.75;;;;;;;;;;4966136;28;20129;-72
2023/01/06 11:51:50;;;;;;;21.00;2.67;;;;;;;;;;4960239;28;20047;-72
2023/01/06 11:54:32;;;;;;;22.33;2.40;;;;;;;;;;4962442;28;20055;-72
2023/01/06 11:57:00;;;;;;;26.77;2.75;;;;;;;;;;4961048;28;20514;-71
2023/01/06 11:59:30;;;;;;;21.77;2.53;;;;;;;;;;4962662;28;20062;-72
2023/01/06 12:01:59;;;;;;;19.52;2.28;;;;;;;;;;4966393;28;20051;-72
2023/01/06 12:04:31;;;;;;;18.55;2.22;;;;;;;;;;4967099;28;20497;-72
2023/01/06 12:07:01;;;;;;;24.55;3.25;;;;;;;;;;4959856;28;20114;-72
2023/01/06 12:09:32;;;;;;;25.20;2.45;;;;;;;;;;4964874;28;20089;-72
2023/01/06 12:12:06;;;;;;;23.27;2.60;;;;;;;;;;4961454;28;20055;-72
2023/01/06 12:14:35;;;;;;;19.20;2.08;;;;;;;;;;4962353;28;20051;-71
2023/01/06 12:17:06;;;;;;;24.38;2.55;;;;;;;;;;4969790;28;20053;-71
2023/01/06 12:19:37;;;;;;;16.35;2.22;;;;;;;;;;4967919;28;20057;-72
2023/01/06 12:22:05;;;;;;;24.42;2.35;;;;;;;;;;4968450;28;20058;-71
2023/01/06 12:24:33;;;;;;;18.35;2.35;;;;;;;;;;4970114;28;20050;-71
2023/01/06 12:27:04;;;;;;;22.63;2.28;;;;;;;;;;4966282;28;20070;-71
2023/01/06 12:29:32;;;;;;;18.33;2.45;;;;;;;;;;4967716;28;20062;-72
2023/01/06 12:32:02;;;;;;;23.92;2.40;;;;;;;;;;4968930;28;20515;-71
2023/01/06 12:34:32;;;;;;;26.33;2.38;;;;;;;;;;4965661;28;20043;-71
2023/01/06 12:37:02;;;;;;;20.08;2.75;;;;;;;;;;4962420;28;20532;-72
2023/01/06 12:39:34;;;;;;;18.60;2.08;;;;;;;;;;4965515;28;20047;-71
2023/01/06 12:42:04;;;;;;;18.10;2.67;;;;;;;;;;4965498;28;20503;-71
2023/01/06 12:44:36;;;;;;;21.65;2.58;;;;;;;;;;4967026;28;20057;-71
2023/01/06 12:47:07;;;;;;;22.42;3.30;;;;;;;;;;4966542;28;20061;-72
2023/01/06 12:49:38;;;;;;;21.98;2.40;;;;;;;;;;4964127;28;20061;-72
2023/01/06 12:52:08;;;;;;;26.75;2.60;;;;;;;;;;4969499;28;20740;-72
2023/01/06 12:54:35;;;;;;;18.58;2.25;;;;;;;;;;4969083;28;20043;-71
2023/01/06 12:57:10;;;;;;;20.23;2.60;;;;;;;;;;4962491;28;20098;-71
2023/01/06 12:59:45;;;;;;;19.35;2.13;;;;;;;;;;4967144;28;20047;-71
2023/01/06 13:02:17;;;;;;;24.20;2.35;;;;;;;;;;4966582;28;20047;-71
2023/01/06 13:05:05;;;;;;;23.88;2.38;;;;;;;;;;4964418;28;20102;-71
2023/01/06 13:07:37;;;;;;;26.33;2.75;;;;;;;;;;4968241;28;20061;-72
2023/01/06 13:10:13;;;;;;;12.32;2.05;;;;;;;;;;4968382;28;20051;-72
2023/01/06 13:13:02;;;;;;;19.02;2.60;;;;;;;;;;4967070;28;20051;-71
2023/01/06 13:15:30;;;;;;;19.42;2.55;;;;;;;;;;4967017;28;20050;-71
2023/01/06 13:18:11;;;;;;;18.55;2.83;;;;;;;;;;4965544;28;20042;-71
2023/01/06 13:20:42;;;;;;;16.05;1.98;;;;;;;;;;4966668;28;20054;-71
2023/01/06 13:23:27;;;;;;;26.70;3.05;;;;;;;;;;4968721;28;20057;-71
2023/01/06 13:26:07;;;;;;;25.10;3.28;;;;;;;;;;4970258;28;20047;-71
2023/01/06 13:28:41;;;;;;;20.88;2.30;;;;;;;;;;4964874;28;20409;-71
2023/01/06 13:31:24;;;;;;;15.88;2.22;;;;;;;;;;4959272;28;20516;-72
2023/01/06 13:34:10;;;;;;;17.25;2.33;;;;;;;;;;4964442;28;20440;-71
2023/01/06 13:36:54;;;;;;;25.63;1.83;;;;;;;;;;4964101;28;20059;-71
2023/01/06 13:39:23;;;;;;;21.35;2.13;;;;;;;;;;4960642;28;20054;-71
2023/01/06 13:41:53;;;;;;;11.50;1.63;;;;;;;;;;4970538;28;20047;-71
2023/01/06 13:44:24;;;;;;;29.58;2.38;;;;;;;;;;4963052;28;20478;-71
2023/01/06 13:46:53;;;;;;;20.80;3.28;;;;;;;;;;4967340;28;20101;-71
2023/01/06 13:49:20;;;;;;;18.80;2.97;;;;;;;;;;4965392;28;20401;-71
2023/01/06 13:51:47;;;;;;;16.80;2.25;;;;;;;;;;4967820;28;20058;-71
2023/01/06 13:54:33;;;;;;;16.83;1.80;;;;;;;;;;4963571;28;20058;-71
2023/01/06 13:57:15;;;;;;;19.48;2.47;;;;;;;;;;4971578;28;20057;-71
2023/01/06 13:59:50;;;;;;;17.92;1.90;;;;;;;;;;4967151;28;20046;-71
2023/01/06 14:02:32;;;;;;;19.77;2.67;;;;;;;;;;4970440;28;20050;-71
2023/01/06 14:04:59;;;;;;;14.45;1.73;;;;;;;;;;4970917;28;20361;-71
2023/01/06 14:07:36;;;;;;;20.73;2.33;;;;;;;;;;4968733;28;20157;-71
2023/01/06 14:10:04;;;;;;;24.88;2.15;;;;;;;;;;4970259;28;20059;-71
2023/01/06 14:12:34;;;;;;;16.63;2.53;;;;;;;;;;4967530;28;20047;-71
2023/01/06 14:15:04;;;;;;;20.23;2.47;;;;;;;;;;4966456;28;20520;-72
2023/01/06 14:17:37;;;;;;;15.90;2.08;;;;;;;;;;4964166;28;20050;-71
2023/01/06 14:20:05;;;;;;;26.27;2.53;;;;;;;;;;4962388;28;20057;-71
2023/01/06 14:22:32;;;;;;;20.00;2.88;;;;;;;;;;4968341;28;20054;-71
2023/01/06 14:25:01;;;;;;;31.75;2.78;;;;;;;;;;4970255;28;20445;-71
2023/01/06 14:27:47;;;;;;;20.25;2.28;;;;;;;;;;4970172;28;20054;-71
2023/01/06 14:30:22;;;;;;;16.30;2.35;;;;;;;;;;4962960;28;20057;-71
2023/01/06 14:33:04;;;;;;;19.00;2.42;;;;;;;;;;4958870;28;20055;-71
2023/01/06 14:35:34;;;;;;;17.65;2.20;;;;;;;;;;4966645;28;20050;-72
2023/01/06 14:38:03;;;;;;;17.70;2.20;;;;;;;;;;4963507;28;20094;-71
2023/01/06 14:40:32;;;;;;;17.02;2.17;;;;;;;;;;4967285;28;20058;-71
2023/01/06 14:43:00;;;;;;;16.35;2.25;;;;;;;;;;4958738;28;20424;-72
2023/01/06 14:45:30;;;;;;;19.17;2.10;;;;;;;;;;4965900;28;20430;-72
2023/01/06 14:48:00;;;;;;;24.50;2.60;;;;;;;;;;4963257;28;20050;-72
2023/01/06 14:50:29;;;;;;;24.45;2.55;;;;;;;;;;4963602;28;20170;-72
2023/01/06 14:52:57;;;;;;;24.70;2.20;;;;;;;;;;4964709;28;20055;-71
2023/01/06 14:55:26;;;;;;;19.67;2.85;;;;;;;;;;4960018;28;20047;-71